Time;durP1;ratioP1;P1;durP2;ratioP2;P2;SDS_P1;SDS_P2;PMS_P1;PMS_P2;Temp;Humidity;BMP_temperature;BMP_pressure;BME280_temperature;BME280_humidity;BME280_pressure;Samples;Min_cycle;Max_cycle;Signal;HPM_P1;HPM_P2
2024/02/12 00:00:54;;;;;;;;;;;;;;;-144.99;100.00;52594.84;5045449;28;20012;-73
2024/02/12 00:03:21;;;;;;;;;;;;;;;-144.99;100.00;52586.69;5046717;28;19991;-73
2024/02/12 00:05:47;;;;;;;;;;;;;;;-144.99;100.00;52582.63;5050039;28;19936;-72
2024/02/12 00:08:15;;;;;;;;;;;;;;;-144.99;100.00;52611.16;5052084;28;19936;-72
2024/02/12 00:10:43;;;;;;;;;;;;;;;-144.99;100.00;52635.63;5051539;28;20290;-72
2024/02/12 00:13:10;;;;;;;;;;;;;;;-144.99;100.00;52611.16;5051535;28;19933;-72
2024/02/12 00:15:38;;;;;;;;;;;;;;;-144.99;100.00;52619.31;5050824;28;19963;-72
2024/02/12 00:18:05;;;;;;;;;;;;;;;-144.99;100.00;52590.78;5049342;28;20020;-72
2024/02/12 00:20:31;;;;;;;;;;;;;;;-144.99;100.00;52586.69;5050320;28;19952;-72
2024/02/12 00:22:58;;;;;;;;;;;;;;;-144.99;100.00;52623.38;5042767;28;19976;-72
2024/02/12 00:25:24;;;;;;;;;;;;;;;-144.99;100.00;52566.31;5050359;28;19929;-72
2024/02/12 00:27:53;;;;;;;;;;;;;;;-144.99;100.00;52582.63;5049984;28;20407;-72
2024/02/12 00:30:20;;;;;;;;;;;;;;;-144.99;100.00;52580.59;5047249;28;20406;-72
2024/02/12 00:32:46;;;;;;;;;;;;;;;-144.99;100.00;52615.25;5048475;28;20034;-69
2024/02/12 00:35:15;;;;;;;;;;;;;;;-144.99;100.00;52651.94;5045165;28;20427;-74
2024/02/12 00:37:42;;;;;;;;;;;;;;;-144.99;100.00;52582.63;5047444;28;19929;-70
2024/02/12 00:40:09;;;;;;;;;;;;;;;-144.99;100.00;52619.31;5045027;28;20019;-70
2024/02/12 00:42:36;;;;;;;;;;;;;;;-144.99;100.00;52594.84;5046668;28;20393;-70
2024/02/12 00:45:06;;;;;;;;;;;;;;;-144.99;100.00;52586.69;5046036;28;19929;-71
2024/02/12 00:47:34;;;;;;;;;;;;;;;-144.99;100.00;52586.69;5040678;28;19929;-69
2024/02/12 00:50:02;;;;;;;;;;;;;;;-144.99;100.00;52582.63;5046490;28;19936;-69
2024/02/12 00:52:28;;;;;;;;;;;;;;;-144.99;100.00;52603.00;5046260;28;20418;-69
2024/02/12 00:54:56;;;;;;;;;;;;;;;-144.99;100.00;52590.78;5042973;28;20000;-69
2024/02/12 00:57:22;;;;;;;;;;;;;;;-144.99;100.00;52611.16;5043207;28;19929;-70
2024/02/12 00:59:49;;;;;;;;;;;;;;;-144.99;100.00;52603.00;5048726;28;20270;-71
2024/02/12 01:02:17;;;;;;;;;;;;;;;-144.99;100.00;52586.69;5042187;28;20057;-70
2024/02/12 01:04:44;;;;;;;;;;;;;;;-144.99;100.00;52611.16;5045973;28;20309;-70
2024/02/12 01:07:10;;;;;;;;;;;;;;;-144.99;100.00;52594.84;5044430;28;19924;-71
2024/02/12 01:09:37;;;;;;;;;;;;;;;-144.99;100.00;52570.38;5042944;28;19968;-70
2024/02/12 01:12:04;;;;;;;;;;;;;;;-144.99;100.00;52619.31;5045543;28;20529;-70
2024/02/12 01:14:30;;;;;;;;;;;;;;;-144.99;100.00;52607.09;5045501;28;20443;-70
2024/02/12 01:16:57;;;;;;;;;;;;;;;-144.99;100.00;52609.13;5043889;28;20020;-69
2024/02/12 01:19:25;;;;;;;;;;;;;;;-144.99;100.00;52552.03;5045084;28;20036;-69
2024/02/12 01:21:51;;;;;;;;;;;;;;;-144.99;100.00;52623.38;5045491;28;19932;-69
2024/02/12 01:24:18;;;;;;;;;;;;;;;-144.99;100.00;52580.59;5045390;28;20159;-68
2024/02/12 01:26:45;;;;;;;;;;;;;;;-144.99;100.00;52619.31;5044596;28;20404;-69
2024/02/12 01:29:14;;;;;;;;;;;;;;;-144.99;100.00;52582.63;5037701;28;19928;-68
2024/02/12 01:31:40;;;;;;;;;;;;;;;-144.99;100.00;52590.78;5044121;28;20525;-68
2024/02/12 01:34:07;;;;;;;;;;;;;;;-144.99;100.00;52635.63;5045245;28;19928;-71
2024/02/12 01:36:36;;;;;;;;;;;;;;;-144.99;100.00;52623.38;5042235;28;19982;-68
2024/02/12 01:39:03;;;;;;;;;;;;;;;-144.99;100.00;52558.16;5046010;28;19929;-68
2024/02/12 01:41:29;;;;;;;;;;;;;;;-144.99;100.00;52590.78;5045693;28;19958;-68
2024/02/12 01:43:56;;;;;;;;;;;;;;;-144.99;100.00;52578.53;5037108;28;19983;-66
2024/02/12 01:46:22;;;;;;;;;;;;;;;-144.99;100.00;52615.25;5043485;28;19932;-69
2024/02/12 01:48:53;;;;;;;;;;;;;;;-144.99;100.00;52598.94;5042273;28;19936;-68
2024/02/12 01:51:20;;;;;;;;;;;;;;;-144.99;100.00;52594.84;5045291;28;20002;-68
2024/02/12 01:53:49;;;;;;;;;;;;;;;-144.99;100.00;52605.03;5039015;28;19982;-68
2024/02/12 01:56:16;;;;;;;;;;;;;;;-144.99;100.00;52621.34;5040743;28;20556;-67
2024/02/12 01:58:43;;;;;;;;;;;;;;;-144.99;100.00;52639.69;5045060;28;20377;-68
2024/02/12 02:01:14;;;;;;;;;;;;;;;-144.99;100.00;52643.78;5040768;28;20468;-68
2024/02/12 02:03:40;;;;;;;;;;;;;;;-144.99;100.00;52594.84;5043211;28;20022;-68
2024/02/12 02:06:08;;;;;;;;;;;;;;;-144.99;100.00;52631.53;5041879;28;20019;-69
2024/02/12 02:08:36;;;;;;;;;;;;;;;-144.99;100.00;52613.19;5044923;28;19928;-68
2024/02/12 02:11:05;;;;;;;;;;;;;;;-144.99;100.00;52541.84;5043784;28;19972;-66
2024/02/12 02:13:32;;;;;;;;;;;;;;;-144.99;100.00;52629.50;5038411;28;19937;-65
2024/02/12 02:15:59;;;;;;;;;;;;;;;-144.99;100.00;52607.09;5045342;28;20050;-66
2024/02/12 02:18:25;;;;;;;;;;;;;;;-144.99;100.00;52598.94;5042034;28;19995;-66
2024/02/12 02:20:52;;;;;;;;;;;;;;;-144.99;100.00;52643.78;5037249;28;19933;-66
2024/02/12 02:23:18;;;;;;;;;;;;;;;-144.99;100.00;52588.75;5037553;28;20076;-66
2024/02/12 02:25:46;;;;;;;;;;;;;;;-144.99;100.00;52590.78;5039345;28;19931;-66
2024/02/12 02:28:13;;;;;;;;;;;;;;;-144.99;100.00;52615.25;5042368;28;19986;-64
2024/02/12 02:30:42;;;;;;;;;;;;;;;-144.99;100.00;52639.69;5042151;28;20264;-63
2024/02/12 02:33:09;;;;;;;;;;;;;;;-144.99;100.00;52592.81;5043608;28;19936;-64
2024/02/12 02:35:35;;;;;;;;;;;;;;;-144.99;100.00;52576.50;5042770;28;20382;-64
2024/02/12 02:38:02;;;;;;;;;;;;;;;-144.99;100.00;52586.69;5036061;28;19929;-66
2024/02/12 02:40:28;;;;;;;;;;;;;;;-144.99;100.00;52574.47;5037173;28;19929;-66
2024/02/12 02:42:57;;;;;;;;;;;;;;;-144.99;100.00;52586.69;5043479;28;19985;-67
2024/02/12 02:45:25;;;;;;;;;;;;;;;-144.99;100.00;52611.16;5039067;28;19926;-65
2024/02/12 02:47:53;;;;;;;;;;;;;;;-144.99;100.00;52605.03;5035655;28;20326;-65
2024/02/12 02:50:20;;;;;;;;;;;;;;;-144.99;100.00;52603.00;5036525;28;20032;-65
2024/02/12 02:52:46;;;;;;;;;;;;;;;-144.99;100.00;52600.97;5039953;28;20351;-66
2024/02/12 02:55:15;;;;;;;;;;;;;;;-144.99;100.00;52643.78;4693043;28;10000346;-66
2024/02/12 02:57:44;;;;;;;;;;;;;;;-144.99;100.00;52590.78;5045251;28;19928;-65
2024/02/12 03:00:12;;;;;;;;;;;;;;;-144.99;100.00;52613.19;5042847;28;19972;-66
2024/02/12 03:02:39;;;;;;;;;;;;;;;-144.99;100.00;52598.94;5042616;28;19933;-66
2024/02/12 03:05:06;;;;;;;;;;;;;;;-144.99;100.00;52586.69;5043140;28;19946;-64
2024/02/12 03:07:36;;;;;;;;;;;;;;;-144.99;100.00;52613.19;5045679;28;20025;-66
2024/02/12 03:10:03;;;;;;;;;;;;;;;-144.99;100.00;52574.47;5045366;28;20297;-66
2024/02/12 03:12:30;;;;;;;;;;;;;;;-144.99;100.00;52590.78;5039185;28;19928;-65
2024/02/12 03:14:57;;;;;;;;;;;;;;;-144.99;100.00;52574.47;5043565;28;19924;-67
2024/02/12 03:17:25;;;;;;;;;;;;;;;-144.99;100.00;52617.28;5040962;28;19932;-66
2024/02/12 03:19:52;;;;;;;;;;;;;;;-144.99;100.00;52594.84;5046637;28;19960;-66
2024/02/12 03:22:18;;;;;;;;;;;;;;;-144.99;100.00;52580.59;5042632;28;20391;-66
2024/02/12 03:24:45;;;;;;;;;;;;;;;-144.99;100.00;52562.25;5044410;28;20019;-65
2024/02/12 03:27:12;;;;;;;;;;;;;;;-144.99;100.00;52550.00;5044147;28;19928;-65
2024/02/12 03:29:38;;;;;;;;;;;;;;;-144.99;100.00;52637.66;5041551;28;19925;-66
2024/02/12 03:32:05;;;;;;;;;;;;;;;-144.99;100.00;52592.81;5044146;28;20024;-68
2024/02/12 03:34:35;;;;;;;;;;;;;;;-144.99;100.00;52586.69;5044669;28;20395;-68
2024/02/12 03:37:02;;;;;;;;;;;;;;;-144.99;100.00;52619.31;5046630;28;19940;-69
2024/02/12 03:39:29;;;;;;;;;;;;;;;-144.99;100.00;52621.34;5045757;28;20437;-69
2024/02/12 03:41:55;;;;;;;;;;;;;;;-144.99;100.00;52570.38;5049250;28;19983;-69
2024/02/12 03:44:23;;;;;;;;;;;;;;;-144.99;100.00;52578.53;5048170;28;20455;-69
2024/02/12 03:46:49;;;;;;;;;;;;;;;-144.99;100.00;52623.38;5050132;28;19937;-69
2024/02/12 04:00:17;;;;;;;;;;;;;;;-144.99;100.00;52590.78;5050553;28;20247;-67
2024/02/12 04:02:44;;;;;;;;;;;;;;;-144.99;100.00;52562.25;5049782;28;20274;-67
2024/02/12 04:05:11;;;;;;;;;;;;;;;-144.99;100.00;52598.94;5048096;28;20391;-68
2024/02/12 04:07:39;;;;;;;;;;;;;;;-144.99;100.00;52598.94;5047293;28;20359;-68
2024/02/12 04:10:10;;;;;;;;;;;;;;;-144.99;100.00;52537.78;5050297;28;20363;-67
2024/02/12 04:12:37;;;;;;;;;;;;;;;-144.99;100.00;52594.84;5050113;28;20663;-67
2024/02/12 04:15:04;;;;;;;;;;;;;;;-144.99;100.00;52556.13;5041716;28;19925;-67
2024/02/12 04:17:31;;;;;;;;;;;;;;;-144.99;100.00;52550.00;5047489;28;19955;-67
2024/02/12 04:19:58;;;;;;;;;;;;;;;-144.99;100.00;52582.63;5049505;28;20282;-68
2024/02/12 04:22:26;;;;;;;;;;;;;;;-144.99;100.00;52590.78;5050231;28;20032;-68
2024/02/12 04:24:54;;;;;;;;;;;;;;;-144.99;100.00;52603.00;5049676;28;20004;-68
2024/02/12 04:27:20;;;;;;;;;;;;;;;-144.99;100.00;52582.63;5051683;28;19924;-72
2024/02/12 04:29:48;;;;;;;;;;;;;;;-144.99;100.00;52578.53;5051467;28;20004;-73
2024/02/12 04:32:15;;;;;;;;;;;;;;;-144.99;100.00;52584.66;5065512;28;19932;-72
2024/02/12 04:34:42;;;;;;;;;;;;;;;-144.99;100.00;52558.16;5060681;28;19924;-72
2024/02/12 04:37:10;;;;;;;;;;;;;;;-144.99;100.00;52578.53;5068012;28;19945;-72
2024/02/12 04:39:36;;;;;;;;;;;;;;;-144.99;100.00;52619.31;5065419;28;20048;-73
2024/02/12 04:42:05;;;;;;;;;;;;;;;-144.99;100.00;52586.69;5064204;28;19932;-72
2024/02/12 04:44:32;;;;;;;;;;;;;;;-144.99;100.00;52582.63;5057938;28;19933;-71
2024/02/12 04:46:59;;;;;;;;;;;;;;;-144.99;100.00;52554.09;5063851;28;19925;-71
2024/02/12 04:49:25;;;;;;;;;;;;;;;-144.99;100.00;52570.38;5056054;28;19925;-71
2024/02/12 04:51:52;;;;;;;;;;;;;;;-144.99;100.00;52609.13;5061642;28;19924;-71
2024/02/12 04:54:19;;;;;;;;;;;;;;;-144.99;100.00;52576.50;5059046;28;20084;-71
2024/02/12 04:56:46;;;;;;;;;;;;;;;-144.99;100.00;52566.31;5056023;28;19933;-70
2024/02/12 04:59:15;;;;;;;;;;;;;;;-144.99;100.00;52570.38;5055691;28;20331;-70
2024/02/12 05:01:41;;;;;;;;;;;;;;;-144.99;100.00;52576.50;5051890;28;19932;-65
2024/02/12 05:04:08;;;;;;;;;;;;;;;-144.99;100.00;52550.00;5050593;28;20114;-65
2024/02/12 05:06:36;;;;;;;;;;;;;;;-144.99;100.00;52615.25;5043829;28;19931;-66
2024/02/12 05:09:04;;;;;;;;;;;;;;;-144.99;100.00;52596.88;5043895;28;20294;-65
2024/02/12 05:11:30;;;;;;;;;;;;;;;-144.99;100.00;52560.19;5043791;28;20010;-65
2024/02/12 05:13:57;;;;;;;;;;;;;;;-144.99;100.00;52607.09;5044936;28;19951;-65
2024/02/12 05:16:30;;;;;;;;;;;;;;;-144.99;100.00;52627.47;5049125;28;19990;-66
2024/02/12 05:24:28;;;;;;;;;;;;;;;-144.99;100.00;52586.69;5042131;28;20377;-68
2024/02/12 05:26:56;;;;;;;;;;;;;;;-144.99;100.00;52580.59;5048958;28;19925;-68
2024/02/12 05:29:22;;;;;;;;;;;;;;;-144.99;100.00;52574.47;5045346;28;19940;-68
2024/02/12 05:31:51;;;;;;;;;;;;;;;-144.99;100.00;52533.69;5042572;28;19968;-68
2024/02/12 05:34:20;;;;;;;;;;;;;;;-144.99;100.00;52562.25;5047755;28;20003;-65
2024/02/12 05:36:47;;;;;;;;;;;;;;;-144.99;100.00;52582.63;5050301;28;20004;-68
2024/02/12 05:39:14;;;;;;;;;;;;;;;-144.99;100.00;52603.00;5046745;28;19998;-70
2024/02/12 05:41:41;;;;;;;;;;;;;;;-144.99;100.00;52562.25;5041958;28;19983;-72
2024/02/12 05:44:07;;;;;;;;;;;;;;;-144.99;100.00;52598.94;5044100;28;19947;-73
2024/02/12 05:46:34;;;;;;;;;;;;;;;-144.99;100.00;52613.19;5048849;28;20015;-72
2024/02/12 05:49:03;;;;;;;;;;;;;;;-144.99;100.00;52594.84;5037001;28;20470;-70
2024/02/12 05:51:30;;;;;;;;;;;;;;;-144.99;100.00;52570.38;5043787;28;19925;-72
2024/02/12 05:53:56;;;;;;;;;;;;;;;-144.99;100.00;52558.16;5042839;28;19925;-74
2024/02/12 05:56:23;;;;;;;;;;;;;;;-144.99;100.00;52558.16;5041634;28;20003;-72
2024/02/12 05:58:49;;;;;;;;;;;;;;;-144.99;100.00;52570.38;5051080;28;19968;-72
2024/02/12 06:01:16;;;;;;;;;;;;;;;-144.99;100.00;52574.47;5043773;28;20007;-72
2024/02/12 06:03:42;;;;;;;;;;;;;;;-144.99;100.00;52582.63;5042450;28;20338;-71
2024/02/12 06:06:10;;;;;;;;;;;;;;;-144.99;100.00;52627.47;5047489;28;19929;-72
2024/02/12 06:08:36;;;;;;;;;;;;;;;-144.99;100.00;52547.97;5045195;28;20036;-72
2024/02/12 06:11:03;;;;;;;;;;;;;;;-144.99;100.00;52582.63;5040034;28;20008;-69
2024/02/12 06:13:29;;;;;;;;;;;;;;;-144.99;100.00;52556.13;5047172;28;19925;-66
2024/02/12 06:15:56;;;;;;;;;;;;;;;-144.99;100.00;52562.25;5045209;28;20391;-73
2024/02/12 06:18:23;;;;;;;;;;;;;;;-144.99;100.00;52564.28;5040807;28;19935;-73
2024/02/12 06:20:50;;;;;;;;;;;;;;;-144.99;100.00;52584.66;5039788;28;19935;-72
2024/02/12 06:23:19;;;;;;;;;;;;;;;-144.99;100.00;52570.38;5047904;28;20048;-73
2024/02/12 06:25:46;;;;;;;;;;;;;;;-144.99;100.00;52562.25;5062862;22;20650;-65
2024/02/12 06:28:12;;;;;;;;;;;;;;;-144.99;100.00;52570.38;5065845;28;20417;-69
2024/02/12 06:30:39;;;;;;;;;;;;;;;-144.99;100.00;52615.25;4363879;28;10000696;-69
2024/02/12 06:33:05;;;;;;;;;;;;;;;-144.99;100.00;52552.03;5035622;28;19928;-69
2024/02/12 06:35:32;;;;;;;;;;;;;;;-144.99;100.00;52574.47;5033061;28;19998;-70
2024/02/12 06:38:02;;;;;;;;;;;;;;;-144.99;100.00;52570.38;5030303;28;19925;-70
2024/02/12 06:40:30;;;;;;;;;;;;;;;-144.99;100.00;52578.53;5030720;28;19929;-70
2024/02/12 06:42:59;;;;;;;;;;;;;;;-144.99;100.00;52529.63;5032108;28;19931;-70
2024/02/12 06:45:26;;;;;;;;;;;;;;;-144.99;100.00;52566.31;5031508;28;19933;-69
2024/02/12 06:47:52;;;;;;;;;;;;;;;-144.99;100.00;52590.78;5033397;28;19936;-69
2024/02/12 06:50:19;;;;;;;;;;;;;;;-144.99;100.00;52564.28;5030999;28;19932;-70
2024/02/12 06:52:45;;;;;;;;;;;;;;;-144.99;100.00;52578.53;5028891;28;19944;-70
2024/02/12 06:55:14;;;;;;;;;;;;;;;-144.99;100.00;52547.97;5032898;28;19960;-70
2024/02/12 06:57:42;;;;;;;;;;;;;;;-144.99;100.00;52566.31;5037942;28;20046;-69
2024/02/12 07:00:09;;;;;;;;;;;;;;;-144.99;100.00;52588.75;5033072;28;19960;-69
2024/02/12 07:02:36;;;;;;;;;;;;;;;-144.99;100.00;52562.25;5037774;28;19929;-69
2024/02/12 07:05:03;;;;;;;;;;;;;;;-144.99;100.00;52574.47;5028678;28;20020;-70
2024/02/12 07:07:30;;;;;;;;;;;;;;;-144.99;100.00;52574.47;5034537;28;20019;-70
2024/02/12 07:09:57;;;;;;;;;;;;;;;-144.99;100.00;52584.66;5035670;28;19932;-70
2024/02/12 07:12:24;;;;;;;;;;;;;;;-144.99;100.00;52550.00;5035388;28;19943;-70
2024/02/12 07:14:52;;;;;;;;;;;;;;;-144.99;100.00;52550.00;5032075;28;19928;-69
2024/02/12 07:17:18;;;;;;;;;;;;;;;-144.99;100.00;52566.31;5032941;28;19951;-70
2024/02/12 07:19:46;;;;;;;;;;;;;;;-144.99;100.00;52594.84;5031023;28;20284;-76
2024/02/12 07:22:13;;;;;;;;;;;;;;;-144.99;100.00;52570.38;5034892;28;20379;-70
2024/02/12 07:24:40;;;;;;;;;;;;;;;-144.99;100.00;52574.47;5038585;28;19964;-70
2024/02/12 07:27:07;;;;;;;;;;;;;;;-144.99;100.00;52570.38;5035884;28;19928;-70
2024/02/12 07:29:33;;;;;;;;;;;;;;;-144.99;100.00;52582.63;5033941;28;19932;-70
2024/02/12 07:32:02;;;;;;;;;;;;;;;-144.99;100.00;52566.31;5033785;28;19925;-70
2024/02/12 07:34:29;;;;;;;;;;;;;;;-144.99;100.00;52570.38;5030456;28;20004;-72
2024/02/12 07:36:55;;;;;;;;;;;;;;;-144.99;100.00;52554.09;5037542;28;19932;-71
2024/02/12 07:39:22;;;;;;;;;;;;;;;-144.99;100.00;52596.88;5030387;28;20027;-71
2024/02/12 07:41:49;;;;;;;;;;;;;;;-144.99;100.00;52590.78;5034051;28;20231;-70
2024/02/12 07:44:15;;;;;;;;;;;;;;;-144.99;100.00;52594.84;5035637;28;19984;-72
2024/02/12 07:46:42;;;;;;;;;;;;;;;-144.99;100.00;52539.81;5040819;28;19937;-71
2024/02/12 07:49:10;;;;;;;;;;;;;;;-144.99;100.00;52566.31;5031563;28;20003;-71
2024/02/12 07:51:40;;;;;;;;;;;;;;;-144.99;100.00;52582.63;5039942;28;19933;-69
2024/02/12 07:54:06;;;;;;;;;;;;;;;-144.99;100.00;52566.31;5031300;28;19936;-69
2024/02/12 07:56:33;;;;;;;;;;;;;;;-144.99;100.00;52564.28;5032040;28;20501;-71
2024/02/12 07:59:00;;;;;;;;;;;;;;;-144.99;100.00;52558.16;5031703;28;20391;-71
2024/02/12 08:01:26;;;;;;;;;;;;;;;-144.99;100.00;52574.47;5033391;28;19968;-72
2024/02/12 08:03:53;;;;;;;;;;;;;;;-144.99;100.00;52554.09;5034339;28;19987;-72
2024/02/12 08:06:20;;;;;;;;;;;;;;;-144.99;100.00;52568.34;5042543;28;19976;-71
2024/02/12 08:08:47;;;;;;;;;;;;;;;-144.99;100.00;52596.88;5038450;28;19936;-71
2024/02/12 08:11:15;;;;;;;;;;;;;;;-144.99;100.00;52572.44;5039510;28;19925;-71
2024/02/12 08:13:42;;;;;;;;;;;;;;;-144.99;100.00;52564.28;5032344;28;19983;-71
2024/02/12 08:16:09;;;;;;;;;;;;;;;-144.99;100.00;52578.53;5029639;28;19991;-71
2024/02/12 08:18:36;;;;;;;;;;;;;;;-144.99;100.00;52550.00;5028863;28;20602;-72
2024/02/12 08:21:03;;;;;;;;;;;;;;;-144.99;100.00;52574.47;5040098;28;20346;-71
2024/02/12 08:23:30;;;;;;;;;;;;;;;-144.99;100.00;52576.50;5032089;28;19929;-71
2024/02/12 08:25:57;;;;;;;;;;;;;;;-144.99;100.00;52560.19;5049788;28;19925;-73
2024/02/12 08:28:24;;;;;;;;;;;;;;;-144.99;100.00;52562.25;5038454;28;19949;-71
2024/02/12 08:30:50;;;;;;;;;;;;;;;-144.99;100.00;52574.47;5027365;28;20410;-71
2024/02/12 08:33:17;;;;;;;;;;;;;;;-144.99;100.00;52590.78;4684603;28;10000012;-72
2024/02/12 08:35:43;;;;;;;;;;;;;;;-144.99;100.00;52586.69;5031799;28;19929;-72
2024/02/12 08:38:10;;;;;;;;;;;;;;;-144.99;100.00;52590.78;5039100;28;19939;-72
2024/02/12 08:40:38;;;;;;;;;;;;;;;-144.99;100.00;52578.53;5035445;28;20279;-71
2024/02/12 08:43:05;;;;;;;;;;;;;;;-144.99;100.00;52598.94;5033796;28;19980;-71
2024/02/12 08:45:31;;;;;;;;;;;;;;;-144.99;100.00;52584.66;5027488;28;19976;-72
2024/02/12 08:47:58;;;;;;;;;;;;;;;-144.99;100.00;52550.00;5029525;28;21828;-74
2024/02/12 08:50:25;;;;;;;;;;;;;;;-144.99;100.00;52568.34;5030798;28;19986;-71
2024/02/12 08:52:53;;;;;;;;;;;;;;;-144.99;100.00;52564.28;5031079;28;19929;-71
2024/02/12 08:55:19;;;;;;;;;;;;;;;-144.99;100.00;52541.84;5038992;28;19948;-73
2024/02/12 08:57:47;;;;;;;;;;;;;;;-144.99;100.00;52562.25;5043121;28;20010;-74
2024/02/12 09:00:15;;;;;;;;;;;;;;;-144.99;100.00;52586.69;5031501;28;20386;-72
2024/02/12 09:02:42;;;;;;;;;;;;;;;-144.99;100.00;52574.47;5040087;28;20086;-71
2024/02/12 09:05:10;;;;;;;;;;;;;;;-144.99;100.00;52525.56;5045067;28;20019;-73
2024/02/12 09:07:37;;;;;;;;;;;;;;;-144.99;100.00;52582.63;5034843;28;19937;-71
2024/02/12 09:10:06;;;;;;;;;;;;;;;-144.99;100.00;52574.47;5039986;28;19928;-71
2024/02/12 09:12:33;;;;;;;;;;;;;;;-144.99;100.00;52582.63;5033247;28;20455;-71
2024/02/12 09:15:01;;;;;;;;;;;;;;;-144.99;100.00;52541.84;5031035;28;20349;-72
2024/02/12 09:17:27;;;;;;;;;;;;;;;-144.99;100.00;52605.03;5039158;28;19979;-71
2024/02/12 09:19:54;;;;;;;;;;;;;;;-144.99;100.00;52574.47;5030757;28;19964;-71
2024/02/12 09:22:20;;;;;;;;;;;;;;;-144.99;100.00;52570.38;5031297;28;20470;-74
2024/02/12 09:24:47;;;;;;;;;;;;;;;-144.99;100.00;52576.50;5035414;28;19935;-72
2024/02/12 09:27:13;;;;;;;;;;;;;;;-144.99;100.00;52537.78;5040485;28;19940;-71
2024/02/12 09:29:40;;;;;;;;;;;;;;;-144.99;100.00;52558.16;5026623;28;19964;-71
2024/02/12 09:32:09;;;;;;;;;;;;;;;-144.99;100.00;52570.38;5040536;28;20015;-71
2024/02/12 09:34:35;;;;;;;;;;;;;;;-144.99;100.00;52550.00;5036221;28;20351;-71
2024/02/12 09:37:03;;;;;;;;;;;;;;;-144.99;100.00;52566.31;5039282;28;19925;-70
2024/02/12 09:39:31;;;;;;;;;;;;;;;-144.99;100.00;52550.00;5040432;28;20043;-71
2024/02/12 09:41:58;;;;;;;;;;;;;;;-144.99;100.00;52529.63;5033757;28;19940;-73
2024/02/12 09:44:25;;;;;;;;;;;;;;;-144.99;100.00;52558.16;5030717;28;19929;-73
2024/02/12 09:46:55;;;;;;;;;;;;;;;-144.99;100.00;52562.25;5028044;28;19925;-72
2024/02/12 09:49:23;;;;;;;;;;;;;;;-144.99;100.00;52545.94;5039935;28;19925;-72
2024/02/12 09:51:52;;;;;;;;;;;;;;;-144.99;100.00;52554.09;5029870;28;19965;-72
2024/02/12 09:54:19;;;;;;;;;;;;;;;-144.99;100.00;52580.59;5037581;28;19929;-71
2024/02/12 09:56:45;;;;;;;;;;;;;;;-144.99;100.00;52570.38;5038221;28;19956;-72
2024/02/12 09:59:13;;;;;;;;;;;;;;;-144.99;100.00;52566.31;5034075;28;20447;-72
2024/02/12 10:01:40;;;;;;;;;;;;;;;-144.99;100.00;52562.25;5036196;28;19929;-71
2024/02/12 10:04:07;;;;;;;;;;;;;;;-144.99;100.00;52543.91;5036295;28;19924;-72
2024/02/12 10:06:36;;;;;;;;;;;;;;;-144.99;100.00;52560.19;5032736;28;19940;-72
2024/02/12 10:09:07;;;;;;;;;;;;;;;-144.99;100.00;52570.38;5032189;28;19933;-72
2024/02/12 10:11:33;;;;;;;;;;;;;;;-144.99;100.00;52566.31;5031161;28;20193;-73
2024/02/12 10:14:04;;;;;;;;;;;;;;;-144.99;100.00;52578.53;5036211;28;20357;-72
2024/02/12 10:16:31;;;;;;;;;;;;;;;-144.99;100.00;52582.63;5033544;28;19935;-72
2024/02/12 10:18:58;;;;;;;;;;;;;;;-144.99;100.00;52578.53;5038363;28;20023;-76
2024/02/12 10:21:24;;;;;;;;;;;;;;;-144.99;100.00;52545.94;5043113;28;19929;-71
2024/02/12 10:23:52;;;;;;;;;;;;;;;-144.99;100.00;52580.59;5029252;28;19964;-72
2024/02/12 10:26:21;;;;;;;;;;;;;;;-144.99;100.00;52545.94;5032991;28;20350;-72
2024/02/12 10:28:53;;;;;;;;;;;;;;;-144.99;100.00;52582.63;5033090;28;20237;-71
2024/02/12 10:31:21;;;;;;;;;;;;;;;-144.99;100.00;52574.47;5034417;28;19937;-72
2024/02/12 10:33:48;;;;;;;;;;;;;;;-144.99;100.00;52566.31;5032924;28;19932;-74
2024/02/12 10:36:15;;;;;;;;;;;;;;;-144.99;100.00;52554.09;5037849;28;19933;-72
2024/02/12 10:38:43;;;;;;;;;;;;;;;-144.99;100.00;52574.47;5043291;28;19932;-71
2024/02/12 10:41:16;;;;;;;;;;;;;;;-144.99;100.00;52529.63;5032102;28;19991;-71
2024/02/12 10:43:44;;;;;;;;;;;;;;;-144.99;100.00;52541.84;5028394;28;19991;-71
2024/02/12 10:46:12;;;;;;;;;;;;;;;-144.99;100.00;52566.31;5040011;28;19924;-71
2024/02/12 10:48:44;;;;;;;;;;;;;;;-144.99;100.00;52578.53;5024856;28;20349;-71
2024/02/12 10:51:10;;;;;;;;;;;;;;;-144.99;100.00;52568.34;5029269;28;20439;-72
2024/02/12 10:53:38;;;;;;;;;;;;;;;-144.99;100.00;52545.94;5034703;28;19933;-71
2024/02/12 10:56:07;;;;;;;;;;;;;;;-144.99;100.00;52537.78;5030845;28;19976;-71
2024/02/12 10:58:35;;;;;;;;;;;;;;;-144.99;100.00;52554.09;5030067;28;20695;-71
2024/02/12 11:01:02;;;;;;;;;;;;;;;-144.99;100.00;52545.94;5032775;28;19932;-71
2024/02/12 11:03:29;;;;;;;;;;;;;;;-144.99;100.00;52570.38;5033497;28;19979;-72
2024/02/12 11:05:56;;;;;;;;;;;;;;;-144.99;100.00;52552.03;5031926;28;19929;-74
2024/02/12 11:08:24;;;;;;;;;;;;;;;-144.99;100.00;52552.03;5035012;28;20368;-72
2024/02/12 11:10:50;;;;;;;;;;;;;;;-144.99;100.00;52578.53;5028731;28;19929;-70
2024/02/12 11:13:19;;;;;;;;;;;;;;;-144.99;100.00;52578.53;5026139;28;19968;-70
2024/02/12 11:15:49;;;;;;;;;;;;;;;-144.99;100.00;52545.94;5027870;28;19947;-73
2024/02/12 11:18:16;;;;;;;;;;;;;;;-144.99;100.00;52517.41;5036715;28;20335;-74
2024/02/12 11:20:49;;;;;;;;;;;;;;;-144.99;100.00;52578.53;5040898;28;19929;-73
2024/02/12 11:23:22;;;;;;;;;;;;;;;-144.99;100.00;52552.03;5024987;28;20301;-72
2024/02/12 11:25:49;;;;;;;;;;;;;;;-144.99;100.00;52564.28;4971214;28;1834646;-72
2024/02/12 11:28:16;;;;;;;;;;;;;;;-144.99;100.00;52525.56;5038262;28;19940;-72
2024/02/12 11:30:42;;;;;;;;;;;;;;;-144.99;100.00;52576.50;5035679;28;20387;-70
2024/02/12 11:33:10;;;;;;;;;;;;;;;-144.99;100.00;52598.94;5034204;28;19972;-70
2024/02/12 11:35:37;;;;;;;;;;;;;;;-144.99;100.00;52558.16;5031160;28;19937;-71
2024/02/12 11:38:03;;;;;;;;;;;;;;;-144.99;100.00;52574.47;5031798;28;20028;-69
2024/02/12 11:40:30;;;;;;;;;;;;;;;-144.99;100.00;52547.97;5031890;28;20032;-69
2024/02/12 11:42:58;;;;;;;;;;;;;;;-144.99;100.00;52603.00;5015413;28;19932;-69
2024/02/12 11:45:25;;;;;;;;;;;;;;;-144.99;100.00;52545.94;5030748;28;20391;-70
2024/02/12 11:47:52;;;;;;;;;;;;;;;-144.99;100.00;52554.09;5027362;28;19968;-70
2024/02/12 11:50:24;;;;;;;;;;;;;;;-144.99;100.00;52598.94;5036169;28;20452;-70
2024/02/12 11:52:51;;;;;;;;;;;;;;;-144.99;100.00;52586.69;5025693;28;20083;-69
2024/02/12 11:55:18;;;;;;;;;;;;;;;-144.99;100.00;52582.63;5026648;28;19983;-70
2024/02/12 11:57:45;;;;;;;;;;;;;;;-144.99;100.00;52603.00;5030187;28;20451;-70
2024/02/12 12:00:16;;;;;;;;;;;;;;;-144.99;100.00;52574.47;5030723;28;19929;-70
2024/02/12 12:02:44;;;;;;;;;;;;;;;-144.99;100.00;52574.47;5037055;28;20378;-70
2024/02/12 12:05:14;;;;;;;;;;;;;;;-144.99;100.00;52566.31;5036912;28;19935;-69
2024/02/12 12:07:42;;;;;;;;;;;;;;;-144.99;100.00;52564.28;5034056;28;19936;-70
2024/02/12 12:10:10;;;;;;;;;;;;;;;-144.99;100.00;52517.41;5038263;28;20456;-69
2024/02/12 12:12:38;;;;;;;;;;;;;;;-144.99;100.00;52570.38;5028911;28;19940;-70
2024/02/12 12:15:05;;;;;;;;;;;;;;;-144.99;100.00;52574.47;5035988;28;20155;-70
2024/02/12 12:17:32;;;;;;;;;;;;;;;-144.99;100.00;52578.53;5038139;28;19929;-69
2024/02/12 12:20:00;;;;;;;;;;;;;;;-144.99;100.00;52586.69;5041453;28;19964;-69
2024/02/12 12:22:27;;;;;;;;;;;;;;;-144.99;100.00;52552.03;5043099;28;19939;-69
2024/02/12 12:24:57;;;;;;;;;;;;;;;-144.99;100.00;52554.09;5035180;28;19929;-70
2024/02/12 12:27:24;;;;;;;;;;;;;;;-144.99;100.00;52570.38;5054881;22;19933;-71
2024/02/12 12:29:52;;;;;;;;;;;;;;;-144.99;100.00;52574.47;5042715;28;20024;-73
2024/02/12 12:32:18;;;;;;;;;;;;;;;-144.99;100.00;52509.25;5031729;28;20449;-72
2024/02/12 12:34:45;;;;;;;;;;;;;;;-144.99;100.00;52558.16;5026859;28;20011;-72